Portada
METAR-TAF:

METAR-TAF

Aeroports :

Teheran, Iran

latitud: 35-41N, longitud: 051-21E, altitud: 1204 m

Observació

L'informe es va fer fa 24 minuts, a les 00:30 UTC
Vent 4 kt del Nord/Nord-Oest
Temperatura 21°C
Humitat 38%
Pressió 1016 hPa
Visibilitat 10 km o més
Escasses núvols a una alçada de 10000 ft
Núvols disperses a una alçada de 20000 ft

METAR: OIII 240030Z 33004KT 9999 FEW100 SCT200 21/06 Q1015 A2999

Hora: 05:24 (00:54 UTC)

Pronòstic

L'informe es va fer fa 1 hora i 44 minuts, a les 23:10 UTC
Pronòstic vàlid del 24 a les 00 UTC al 25 a les 06 UTC
Vent 8 kt del Oest/Nord-Oest
Visibilitat: 8000 m
Escasses núvols a una alçada de 3500 ft
Temporalment
l' 24 a les 09 UTC al 24 a les 16 UTC
Vent 18 kt del Oest
Núvols disperses a una alçada de 3500 ft
Núvols disperses a una alçada de 10000 ft

TAF: OIII 232310Z 2400/2506 30008KT 8000 FEW035 TEMPO 2409/2416 27018KT SCT035 SCT100

Observacions i pronòstics meteorològics de més de 4000 aeroports (METAR i TAF).

Les estacions disponibles són els punts grocs i vermells al mapa.

Posi el ratolí al punt desitjat per veure el nom de l'estació.

Feu clic per veure les observacions i els pronòstics meteorològics.

Per canviar el mapa: feu clic els botons verds amb una creu de color negre per apropar; al botó verd amb un guió per allunyar la imatge; o en les fletxes verdes per a mapes adjacents.


METAR-TAF: